Time;durP1;ratioP1;P1;durP2;ratioP2;P2;SDS_P1;SDS_P2;PMS_P1;PMS_P2;Temp;Humidity;BMP_temperature;BMP_pressure;BME280_temperature;BME280_humidity;BME280_pressure;Samples;Min_cycle;Max_cycle;Signal;HPM_P1;HPM_P2
2022/04/10 00:00:05;;;;;;;0.03;0.03;;;4.10;99.90;;;;;;4879163;29;20682;-61
2022/04/10 00:02:31;;;;;;;0.30;0.30;;;4.10;99.90;;;;;;4879860;29;20664;-61
2022/04/10 00:04:57;;;;;;;4.17;0.93;;;4.10;99.90;;;;;;4879613;29;20291;-60
2022/04/10 00:07:22;;;;;;;0.90;0.90;;;4.10;99.90;;;;;;4879462;29;20245;-62
2022/04/10 00:09:48;;;;;;;0.20;0.20;;;4.10;99.90;;;;;;4862768;29;20664;-61
2022/04/10 00:12:14;;;;;;;0.93;0.93;;;4.00;99.90;;;;;;4879121;29;20290;-60
2022/04/10 00:14:39;;;;;;;1.80;1.50;;;4.00;99.90;;;;;;4879194;29;20189;-61
2022/04/10 00:17:05;;;;;;;0.50;0.50;;;4.00;99.90;;;;;;4879374;29;20180;-60
2022/04/10 00:19:31;;;;;;;0.70;0.70;;;3.90;99.90;;;;;;4879192;29;20271;-61
2022/04/10 00:21:57;;;;;;;1.50;1.17;;;3.90;99.90;;;;;;4879255;29;20616;-61
2022/04/10 00:24:25;;;;;;;0.93;0.83;;;3.80;99.90;;;;;;4879002;29;20614;-60
2022/04/10 00:26:52;;;;;;;1.43;1.33;;;3.80;99.90;;;;;;4879199;29;20625;-61
2022/04/10 00:29:18;;;;;;;0.73;0.73;;;3.70;99.90;;;;;;4878681;29;20188;-61
2022/04/10 00:31:44;;;;;;;1.30;0.50;;;3.70;99.90;;;;;;4878407;29;20196;-60
2022/04/10 00:34:10;;;;;;;0.33;0.33;;;3.70;99.90;;;;;;4878783;29;20199;-61
2022/04/10 00:36:36;;;;;;;0.10;0.10;;;3.60;99.90;;;;;;4879214;29;20187;-60
2022/04/10 00:39:03;;;;;;;0.20;0.20;;;3.60;99.90;;;;;;4878514;29;20545;-62
2022/04/10 00:41:30;;;;;;;1.13;1.13;;;3.60;99.90;;;;;;4878930;29;20216;-61
2022/04/10 00:44:06;;;;;;;0.57;0.57;;;3.50;99.90;;;;;;4878817;29;20194;-59
2022/04/10 00:46:32;;;;;;;1.60;1.23;;;3.40;99.90;;;;;;4878771;29;20658;-61
2022/04/10 00:48:58;;;;;;;1.30;1.20;;;3.40;99.90;;;;;;4878936;29;20191;-60
2022/04/10 00:51:40;;;;;;;0.50;0.50;;;3.30;99.90;;;;;;4878654;29;20184;-59
2022/04/10 00:54:09;;;;;;;0.47;0.47;;;3.30;99.90;;;;;;4877900;29;20250;-60
2022/04/10 00:56:36;;;;;;;0.20;0.20;;;3.30;99.90;;;;;;4878850;29;20191;-61
2022/04/10 00:59:03;;;;;;;0.00;0.00;;;3.20;99.90;;;;;;4878667;29;20242;-61
2022/04/10 01:01:29;;;;;;;0.20;0.20;;;3.20;99.90;;;;;;4878601;29;20214;-61
2022/04/10 01:03:55;;;;;;;1.50;0.40;;;3.10;99.90;;;;;;4878627;29;20259;-60
2022/04/10 01:06:22;;;;;;;0.10;0.10;;;3.10;99.90;;;;;;4878375;29;20177;-60
2022/04/10 01:08:48;;;;;;;0.00;0.00;;;3.10;99.90;;;;;;4878100;29;20197;-60
2022/04/10 01:11:15;;;;;;;4.90;1.50;;;3.10;99.90;;;;;;4878067;29;20195;-61
2022/04/10 01:13:41;;;;;;;0.73;0.17;;;3.00;99.90;;;;;;4878287;29;20643;-60
2022/04/10 01:16:07;;;;;;;0.40;0.40;;;3.00;99.90;;;;;;4878312;29;20202;-61
2022/04/10 01:18:34;;;;;;;2.07;1.43;;;3.00;99.90;;;;;;4878228;29;20216;-60
2022/04/10 01:21:04;;;;;;;1.43;1.33;;;3.10;99.90;;;;;;4878155;29;20218;-61
2022/04/10 01:23:30;;;;;;;2.93;0.63;;;3.00;99.90;;;;;;4877952;29;20210;-61
2022/04/10 01:25:56;;;;;;;0.53;0.53;;;3.00;99.90;;;;;;4878526;29;20207;-62
2022/04/10 01:28:22;;;;;;;0.37;0.37;;;3.00;99.90;;;;;;4878014;29;20242;-61
2022/04/10 01:30:47;;;;;;;0.20;0.20;;;3.10;99.90;;;;;;4878096;29;20254;-62
2022/04/10 01:33:13;;;;;;;0.43;0.43;;;3.10;99.90;;;;;;4876770;29;20278;-62
2022/04/10 01:35:39;;;;;;;0.20;0.20;;;3.10;99.90;;;;;;4878136;29;20647;-61
2022/04/10 01:38:06;;;;;;;0.57;0.30;;;3.00;99.90;;;;;;4861372;29;20283;-63
2022/04/10 01:40:33;;;;;;;0.17;0.17;;;3.10;99.90;;;;;;4877899;29;20275;-61
2022/04/10 01:42:59;;;;;;;1.10;1.10;;;3.10;99.90;;;;;;4882914;29;20195;-62
2022/04/10 01:45:25;;;;;;;0.10;0.10;;;3.10;99.90;;;;;;4883982;29;20192;-61
2022/04/10 01:47:53;;;;;;;0.30;0.30;;;3.00;99.90;;;;;;4884320;29;20243;-61
2022/04/10 01:50:20;;;;;;;0.40;0.40;;;3.00;99.90;;;;;;4867001;29;20196;-61
2022/04/10 01:52:46;;;;;;;3.90;1.20;;;3.10;99.90;;;;;;4884368;29;20196;-61
2022/04/10 01:55:11;;;;;;;1.13;0.90;;;3.10;99.90;;;;;;4883640;29;20663;-60
2022/04/10 01:57:37;;;;;;;0.57;0.57;;;3.10;99.90;;;;;;4884718;29;20199;-61
2022/04/10 02:00:07;;;;;;;0.60;0.60;;;3.10;99.90;;;;;;4882852;29;20729;-60
2022/04/10 02:02:33;;;;;;;0.97;0.60;;;3.10;99.90;;;;;;4884141;29;20196;-60
2022/04/10 02:04:58;;;;;;;0.43;0.43;;;3.10;99.90;;;;;;4867205;29;20552;-61
2022/04/10 02:07:24;;;;;;;0.00;0.00;;;3.10;99.90;;;;;;4883775;29;20205;-59
2022/04/10 02:09:50;;;;;;;0.07;0.07;;;3.10;99.90;;;;;;4883984;29;20281;-59
2022/04/10 02:12:15;;;;;;;1.27;0.60;;;3.10;99.90;;;;;;4883870;29;20226;-59
2022/04/10 02:14:41;;;;;;;0.77;0.77;;;3.10;99.90;;;;;;4884104;29;20598;-61
2022/04/10 02:17:07;;;;;;;1.03;0.33;;;3.00;99.90;;;;;;4867382;29;20187;-63
2022/04/10 02:19:33;;;;;;;0.30;0.30;;;3.10;99.90;;;;;;4883740;29;20196;-61
2022/04/10 02:22:01;;;;;;;0.30;0.27;;;3.10;99.90;;;;;;4884425;29;20549;-61
2022/04/10 02:24:26;;;;;;;0.20;0.20;;;3.10;99.90;;;;;;4883567;29;20198;-61
2022/04/10 02:26:52;;;;;;;0.30;0.30;;;3.10;99.90;;;;;;4883912;29;20677;-61
2022/04/10 02:29:18;;;;;;;0.40;0.40;;;3.00;99.90;;;;;;4867011;29;20240;-60
2022/04/10 02:31:43;;;;;;;3.30;0.77;;;3.00;99.90;;;;;;4883727;29;20181;-60
2022/04/10 02:34:09;;;;;;;0.20;0.20;;;3.00;99.90;;;;;;4883562;29;20186;-61
2022/04/10 02:36:35;;;;;;;0.10;0.10;;;3.10;99.90;;;;;;4882558;29;20193;-60
2022/04/10 02:39:01;;;;;;;0.13;0.13;;;3.10;99.90;;;;;;4883968;29;20195;-61
2022/04/10 02:41:26;;;;;;;0.40;0.33;;;3.10;99.90;;;;;;4883455;29;20211;-61
2022/04/10 02:43:52;;;;;;;0.20;0.20;;;3.00;99.90;;;;;;4883852;29;20194;-61
2022/04/10 02:46:18;;;;;;;0.30;0.30;;;3.00;99.90;;;;;;4870782;29;20190;-60
2022/04/10 02:48:43;;;;;;;0.43;0.40;;;3.00;99.90;;;;;;4883739;29;20186;-60
2022/04/10 02:51:09;;;;;;;1.00;0.57;;;3.00;99.90;;;;;;4883689;29;20199;-63
2022/04/10 02:53:35;;;;;;;0.10;0.10;;;2.90;99.90;;;;;;4881905;29;20217;-60
2022/04/10 02:56:00;;;;;;;2.13;0.40;;;2.90;99.90;;;;;;4880551;29;20241;-60
2022/04/10 02:58:26;;;;;;;0.10;0.10;;;2.90;99.90;;;;;;4880513;29;20186;-61
2022/04/10 03:00:52;;;;;;;0.57;0.57;;;2.90;99.90;;;;;;4863942;29;20301;-62
2022/04/10 03:03:18;;;;;;;0.10;0.10;;;2.90;99.90;;;;;;4880372;29;20242;-61
2022/04/10 03:05:43;;;;;;;0.53;0.53;;;2.90;99.90;;;;;;4879407;29;20309;-61
2022/04/10 03:08:09;;;;;;;0.67;0.67;;;2.90;99.90;;;;;;4880532;29;20199;-62
2022/04/10 03:10:35;;;;;;;0.90;0.90;;;2.90;99.90;;;;;;4880463;29;20197;-61
2022/04/10 03:13:01;;;;;;;0.30;0.30;;;2.90;99.90;;;;;;4880399;29;20269;-60
2022/04/10 03:15:27;;;;;;;0.33;0.33;;;2.90;99.90;;;;;;4880204;29;20547;-61
2022/04/10 03:17:52;;;;;;;0.70;0.70;;;2.90;99.90;;;;;;4880281;29;20189;-62
2022/04/10 03:20:18;;;;;;;0.10;0.10;;;2.90;99.90;;;;;;4880092;29;20241;-61
2022/04/10 03:22:44;;;;;;;0.37;0.37;;;3.00;99.90;;;;;;4880379;29;20190;-62
2022/04/10 03:25:11;;;;;;;0.30;0.30;;;2.90;99.90;;;;;;4880167;29;20250;-60
2022/04/10 03:27:36;;;;;;;0.30;0.27;;;2.90;99.90;;;;;;4880301;29;20298;-61
2022/04/10 03:30:04;;;;;;;1.07;1.07;;;3.00;99.90;;;;;;4880080;29;20687;-60
2022/04/10 03:32:29;;;;;;;0.27;0.27;;;3.00;99.90;;;;;;4879602;29;20286;-62
2022/04/10 03:34:55;;;;;;;0.00;0.00;;;2.90;99.90;;;;;;4880188;29;20269;-62
2022/04/10 03:37:21;;;;;;;0.20;0.20;;;2.90;99.90;;;;;;4879841;29;20217;-62
2022/04/10 03:39:47;;;;;;;0.60;0.50;;;3.00;99.90;;;;;;4879825;29;20218;-62
2022/04/10 03:42:12;;;;;;;0.47;0.47;;;3.00;99.90;;;;;;4879491;29;20197;-63
2022/04/10 03:44:39;;;;;;;3.40;1.07;;;3.00;99.90;;;;;;4879908;29;20190;-62
2022/04/10 03:47:05;;;;;;;0.10;0.10;;;3.00;99.90;;;;;;4879326;29;20205;-62
2022/04/10 03:49:30;;;;;;;0.03;0.03;;;3.00;99.90;;;;;;4879516;29;20186;-62
2022/04/10 03:51:56;;;;;;;1.17;0.83;;;3.10;99.90;;;;;;4879913;29;20254;-62
2022/04/10 03:54:22;;;;;;;1.90;0.97;;;3.10;99.90;;;;;;4879467;29;20600;-63
2022/04/10 03:56:47;;;;;;;0.97;0.93;;;3.10;99.90;;;;;;4863012;29;20191;-63
2022/04/10 03:59:13;;;;;;;1.17;0.60;;;3.20;99.90;;;;;;4879136;29;20198;-62
2022/04/10 04:01:39;;;;;;;0.50;0.43;;;3.20;99.90;;;;;;4879416;29;20222;-62
2022/04/10 04:04:05;;;;;;;1.00;0.80;;;3.20;99.90;;;;;;4878367;29;20217;-62
2022/04/10 04:06:31;;;;;;;0.40;0.40;;;3.20;99.90;;;;;;4878496;29;20266;-62
2022/04/10 04:08:56;;;;;;;0.50;0.47;;;3.20;99.90;;;;;;4879323;29;20289;-62
2022/04/10 04:11:22;;;;;;;0.63;0.30;;;3.20;99.90;;;;;;4878912;29;20193;-61
2022/04/10 04:13:48;;;;;;;0.20;0.20;;;3.10;99.90;;;;;;4878790;29;20198;-62
2022/04/10 04:16:13;;;;;;;1.07;0.90;;;3.10;99.90;;;;;;4879229;29;20196;-63
2022/04/10 04:18:39;;;;;;;0.40;0.33;;;3.10;99.90;;;;;;4879731;29;20217;-62
2022/04/10 04:21:05;;;;;;;1.67;1.40;;;3.00;99.90;;;;;;4879185;29;20701;-62
2022/04/10 04:23:31;;;;;;;0.50;0.50;;;3.00;99.90;;;;;;4879061;29;20219;-62
2022/04/10 04:25:56;;;;;;;1.40;0.93;;;3.00;99.90;;;;;;4879273;29;20235;-62
2022/04/10 04:28:22;;;;;;;0.73;0.70;;;3.00;99.90;;;;;;4878704;29;20210;-62
2022/04/10 04:30:48;;;;;;;0.90;0.67;;;3.00;99.90;;;;;;4878847;29;20211;-62
2022/04/10 04:33:16;;;;;;;0.67;0.67;;;3.00;99.90;;;;;;4878966;29;20702;-62
2022/04/10 04:35:42;;;;;;;0.40;0.40;;;3.00;99.90;;;;;;4878667;29;20212;-61
2022/04/10 04:38:08;;;;;;;0.87;0.30;;;3.00;99.90;;;;;;4878422;29;20227;-62
2022/04/10 04:40:34;;;;;;;1.23;1.03;;;2.90;99.90;;;;;;4878214;29;20206;-61
2022/04/10 04:42:59;;;;;;;1.87;1.13;;;2.90;99.90;;;;;;4878148;29;20568;-62
2022/04/10 04:45:25;;;;;;;11.90;2.30;;;3.00;99.90;;;;;;4878225;29;20290;-63
2022/04/10 04:47:51;;;;;;;0.53;0.53;;;3.00;99.90;;;;;;4878404;29;20374;-62
2022/04/10 04:50:16;;;;;;;1.90;1.07;;;2.90;99.90;;;;;;4877975;29;20192;-63
2022/04/10 04:52:42;;;;;;;0.30;0.30;;;2.80;99.90;;;;;;4878497;29;20190;-62
2022/04/10 04:55:08;;;;;;;0.10;0.10;;;2.80;99.90;;;;;;4861923;29;20314;-62
2022/04/10 04:57:34;;;;;;;0.20;0.20;;;2.70;99.90;;;;;;4878552;29;20199;-63
2022/04/10 05:00:00;;;;;;;1.83;0.40;;;2.70;99.90;;;;;;4861463;29;20666;-63
2022/04/10 05:02:26;;;;;;;0.53;0.53;;;2.70;99.90;;;;;;4878378;29;20278;-63
2022/04/10 05:04:52;;;;;;;7.67;1.47;;;2.70;99.90;;;;;;4878301;29;20651;-62
2022/04/10 05:07:18;;;;;;;0.47;0.47;;;2.80;99.90;;;;;;4878198;29;20605;-63
2022/04/10 05:09:43;;;;;;;0.60;0.60;;;2.80;99.90;;;;;;4878340;29;20305;-63
2022/04/10 05:12:10;;;;;;;9.60;1.57;;;2.80;99.90;;;;;;4877051;29;20669;-64
2022/04/10 05:14:35;;;;;;;0.97;0.87;;;2.80;99.90;;;;;;4878297;29;20193;-63
2022/04/10 05:17:01;;;;;;;0.87;0.87;;;2.80;99.90;;;;;;4861431;29;20193;-63
2022/04/10 05:19:27;;;;;;;0.60;0.60;;;2.80;99.90;;;;;;4878508;29;20213;-62
2022/04/10 05:21:52;;;;;;;0.73;0.73;;;2.80;99.90;;;;;;4878101;29;20190;-62
2022/04/10 05:24:18;;;;;;;1.80;1.50;;;2.80;99.90;;;;;;4878116;29;20221;-63
2022/04/10 05:26:44;;;;;;;0.27;0.27;;;2.70;99.90;;;;;;4878227;29;20262;-61
2022/04/10 05:29:10;;;;;;;0.03;0.03;;;2.70;99.90;;;;;;4877858;29;20679;-62
2022/04/10 05:31:35;;;;;;;0.20;0.20;;;2.80;99.90;;;;;;4877940;29;20189;-64
2022/04/10 05:34:01;;;;;;;0.60;0.50;;;2.80;99.90;;;;;;4861626;29;20206;-63
2022/04/10 05:36:27;;;;;;;0.20;0.20;;;2.80;99.90;;;;;;4878082;29;20222;-63
2022/04/10 05:38:52;;;;;;;3.30;1.37;;;2.70;99.90;;;;;;4878087;29;20183;-62
2022/04/10 05:41:18;;;;;;;0.20;0.20;;;2.80;99.90;;;;;;4877786;29;20221;-63
2022/04/10 05:43:44;;;;;;;0.33;0.33;;;2.70;99.90;;;;;;4877602;29;20203;-63
2022/04/10 05:46:09;;;;;;;0.23;0.23;;;2.60;99.90;;;;;;4878021;29;20193;-64
2022/04/10 05:48:35;;;;;;;0.10;0.10;;;2.60;99.90;;;;;;4877714;29;20193;-62
2022/04/10 05:51:01;;;;;;;0.73;0.73;;;2.60;99.90;;;;;;4878179;29;20293;-62
2022/04/10 05:53:27;;;;;;;1.30;1.20;;;2.70;99.90;;;;;;4877441;29;20193;-62
2022/04/10 05:55:52;;;;;;;0.53;0.53;;;2.80;99.90;;;;;;4877648;29;20291;-62
2022/04/10 05:58:18;;;;;;;0.77;0.77;;;2.70;99.90;;;;;;4877763;29;20189;-62
2022/04/10 06:00:44;;;;;;;0.43;0.43;;;2.70;99.90;;;;;;4877932;29;20214;-63
2022/04/10 06:03:09;;;;;;;0.10;0.10;;;2.70;99.90;;;;;;4861272;29;20194;-62
2022/04/10 06:05:36;;;;;;;0.73;0.50;;;2.80;99.90;;;;;;4877878;29;20275;-64
2022/04/10 06:08:02;;;;;;;0.00;0.00;;;2.80;99.90;;;;;;4861370;29;20189;-64
2022/04/10 06:10:28;;;;;;;0.40;0.40;;;2.80;99.90;;;;;;4877388;29;20248;-63
2022/04/10 06:12:54;;;;;;;1.70;1.27;;;2.80;99.90;;;;;;4877031;29;20917;-63
2022/04/10 06:15:20;;;;;;;3.13;1.67;;;2.80;99.90;;;;;;4877898;29;20230;-63
2022/04/10 06:17:46;;;;;;;5.53;1.30;;;2.80;99.90;;;;;;4877861;29;20226;-63
2022/04/10 06:20:12;;;;;;;0.43;0.43;;;2.80;99.90;;;;;;4877213;29;20281;-61
2022/04/10 06:22:37;;;;;;;0.00;0.00;;;2.80;99.90;;;;;;4860778;29;20198;-63
2022/04/10 06:25:04;;;;;;;0.63;0.30;;;2.70;99.90;;;;;;4877793;29;20182;-64
2022/04/10 06:27:29;;;;;;;0.67;0.67;;;2.60;99.90;;;;;;4877093;29;20319;-63
2022/04/10 06:29:55;;;;;;;0.13;0.13;;;2.70;99.90;;;;;;4879813;29;20191;-64
2022/04/10 06:32:21;;;;;;;2.20;0.70;;;2.70;99.90;;;;;;4881248;29;20187;-64
2022/04/10 06:34:46;;;;;;;0.50;0.50;;;2.70;99.90;;;;;;4881025;29;20543;-63
2022/04/10 06:37:12;;;;;;;0.43;0.43;;;2.70;99.90;;;;;;4881287;29;20317;-64
2022/04/10 06:39:38;;;;;;;0.70;0.70;;;2.70;99.90;;;;;;4880491;29;20269;-65
2022/04/10 06:42:08;;;;;;;0.30;0.30;;;2.60;99.90;;;;;;4880741;29;20209;-64
2022/04/10 06:44:34;;;;;;;1.67;1.03;;;2.50;99.90;;;;;;4880452;29;20202;-63
2022/04/10 06:47:00;;;;;;;0.30;0.30;;;2.50;99.90;;;;;;4880702;29;20191;-64
2022/04/10 06:49:26;;;;;;;1.17;1.07;;;2.50;99.90;;;;;;4863576;29;20534;-63
2022/04/10 06:51:52;;;;;;;0.20;0.20;;;2.40;99.90;;;;;;4880965;29;20189;-64
2022/04/10 06:54:17;;;;;;;0.70;0.70;;;2.50;99.90;;;;;;4880139;29;20226;-64
2022/04/10 06:56:44;;;;;;;0.20;0.20;;;2.50;99.90;;;;;;4880154;29;20206;-63
2022/04/10 06:59:10;;;;;;;3.23;2.00;;;2.50;99.90;;;;;;4880544;29;20193;-63
2022/04/10 07:01:35;;;;;;;2.90;0.90;;;2.40;99.90;;;;;;4880025;29;20273;-65
2022/04/10 07:04:02;;;;;;;1.37;1.23;;;2.40;99.90;;;;;;4880440;29;20647;-64
2022/04/10 07:06:28;;;;;;;1.10;1.07;;;2.40;99.90;;;;;;4880218;29;20185;-63
2022/04/10 07:08:53;;;;;;;0.10;0.10;;;2.40;99.90;;;;;;4880398;29;20197;-64
2022/04/10 07:11:19;;;;;;;0.33;0.33;;;2.50;99.90;;;;;;4880231;29;20268;-63
2022/04/10 07:13:45;;;;;;;0.30;0.30;;;2.50;99.90;;;;;;4880118;29;20241;-61
2022/04/10 07:16:11;;;;;;;0.30;0.30;;;2.50;99.90;;;;;;4880288;29;20215;-62
2022/04/10 07:18:37;;;;;;;1.10;0.60;;;2.60;99.90;;;;;;4879941;29;20194;-63
2022/04/10 07:21:03;;;;;;;1.37;0.50;;;2.70;99.90;;;;;;4880282;29;20218;-61
2022/04/10 07:23:45;;;;;;;1.40;1.30;;;2.70;99.90;;;;;;4880114;29;20203;-59
2022/04/10 07:26:15;;;;;;;0.33;0.33;;;2.70;99.90;;;;;;4880256;29;20183;-56
2022/04/10 07:28:41;;;;;;;0.77;0.77;;;2.80;99.90;;;;;;4879886;29;20187;-56
2022/04/10 07:31:09;;;;;;;0.20;0.20;;;2.80;99.90;;;;;;4880139;29;20269;-57
2022/04/10 07:33:35;;;;;;;1.77;1.17;;;2.80;99.90;;;;;;4879556;29;20208;-54
2022/04/10 07:36:01;;;;;;;1.13;0.83;;;2.70;99.90;;;;;;4879776;29;20265;-53
2022/04/10 07:38:27;;;;;;;0.00;0.00;;;2.80;99.90;;;;;;4863091;29;20248;-58
2022/04/10 07:40:53;;;;;;;0.50;0.50;;;2.90;99.90;;;;;;4879399;29;20309;-54
2022/04/10 07:43:19;;;;;;;1.83;1.20;;;2.90;99.90;;;;;;4879777;29;20678;-57
2022/04/10 07:48:29;;;;;;;1.23;1.03;;;3.00;99.90;;;;;;4879745;29;20194;-65
2022/04/10 07:50:56;;;;;;;0.00;0.00;;;3.10;99.90;;;;;;4879310;29;20199;-63
2022/04/10 07:53:21;;;;;;;0.93;0.70;;;3.10;99.90;;;;;;4879070;29;20647;-61
2022/04/10 07:55:47;;;;;;;0.93;0.93;;;3.30;99.90;;;;;;4879141;29;20239;-62
2022/04/10 07:58:13;;;;;;;1.23;1.13;;;3.50;99.90;;;;;;4879532;29;20655;-60
2022/04/10 08:00:39;;;;;;;1.17;1.03;;;3.50;99.90;;;;;;4879054;29;20218;-59
2022/04/10 08:03:05;;;;;;;1.47;1.00;;;3.60;99.90;;;;;;4879065;29;20282;-60
2022/04/10 08:05:30;;;;;;;0.00;0.00;;;3.60;99.90;;;;;;4861918;29;20195;-62
2022/04/10 08:07:56;;;;;;;0.50;0.50;;;3.60;99.90;;;;;;4879417;29;20342;-63
2022/04/10 08:10:22;;;;;;;0.53;0.53;;;3.80;99.90;;;;;;4879056;29;20195;-61
2022/04/10 08:12:48;;;;;;;0.10;0.10;;;3.90;99.90;;;;;;4878987;29;20299;-60
2022/04/10 08:15:14;;;;;;;0.63;0.63;;;3.90;99.90;;;;;;4879012;29;20194;-62
2022/04/10 08:17:40;;;;;;;0.70;0.60;;;3.90;99.90;;;;;;4878775;29;20174;-61
2022/04/10 08:20:07;;;;;;;0.10;0.10;;;3.80;99.90;;;;;;4878539;29;20242;-63
2022/04/10 08:22:34;;;;;;;1.20;0.43;;;3.80;99.90;;;;;;4877870;29;20602;-64
2022/04/10 08:25:02;;;;;;;1.60;1.17;;;3.80;99.90;;;;;;4878162;29;20644;-62
2022/04/10 08:27:29;;;;;;;0.10;0.10;;;3.80;99.90;;;;;;4878567;29;20191;-62
2022/04/10 08:29:55;;;;;;;0.30;0.30;;;3.90;99.90;;;;;;4878765;29;20264;-60
2022/04/10 08:32:21;;;;;;;0.50;0.40;;;4.00;99.90;;;;;;4878837;29;20191;-60
2022/04/10 08:34:47;;;;;;;0.30;0.30;;;4.00;99.90;;;;;;4878411;29;20207;-65
2022/04/10 08:37:13;;;;;;;0.20;0.20;;;4.10;99.90;;;;;;4878619;29;20569;-60
2022/04/10 08:39:38;;;;;;;0.93;0.73;;;4.20;99.90;;;;;;4877350;29;20192;-60
2022/04/10 08:42:06;;;;;;;0.10;0.10;;;4.30;99.90;;;;;;4878952;29;20195;-61
2022/04/10 08:44:33;;;;;;;6.30;1.43;;;4.30;99.90;;;;;;4876086;29;20208;-61
2022/04/10 08:46:59;;;;;;;0.17;0.17;;;4.40;99.90;;;;;;4845876;29;20189;-59
2022/04/10 08:49:27;;;;;;;0.70;0.70;;;4.40;99.90;;;;;;4859824;29;20200;-60
2022/04/10 08:51:53;;;;;;;0.10;0.10;;;4.50;99.90;;;;;;4859080;29;20328;-61
2022/04/10 08:54:20;;;;;;;0.70;0.70;;;4.40;99.90;;;;;;4859705;29;20196;-60
2022/04/10 08:56:46;;;;;;;0.43;0.43;;;4.50;99.90;;;;;;4859898;29;20184;-61
2022/04/10 08:59:12;;;;;;;0.37;0.33;;;4.50;99.90;;;;;;4859724;29;20548;-60
2022/04/10 09:01:38;;;;;;;0.93;0.67;;;4.50;99.90;;;;;;4859513;29;20224;-61
2022/04/10 09:04:05;;;;;;;0.10;0.10;;;4.50;99.90;;;;;;4859758;29;20533;-61
2022/04/10 09:06:31;;;;;;;0.67;0.60;;;4.30;99.90;;;;;;4859933;29;20193;-61
2022/04/10 09:09:13;;;;;;;0.33;0.33;;;4.00;99.90;;;;;;4858591;29;20197;-60
2022/04/10 09:11:40;;;;;;;0.83;0.80;;;3.90;99.90;;;;;;4870738;29;20259;-62
2022/04/10 09:14:06;;;;;;;0.37;0.33;;;3.90;99.90;;;;;;4877070;29;20211;-60
2022/04/10 09:16:32;;;;;;;1.33;0.67;;;3.70;99.90;;;;;;4877439;29;20207;-67
2022/04/10 09:19:09;;;;;;;0.80;0.80;;;3.50;99.90;;;;;;4877629;29;20293;-66
2022/04/10 09:21:39;;;;;;;0.20;0.20;;;3.60;99.90;;;;;;4874864;29;20417;-66
2022/04/10 09:24:11;;;;;;;5.00;1.40;;;3.70;99.90;;;;;;4867840;29;20287;-66
2022/04/10 09:26:55;;;;;;;0.60;0.60;;;3.90;99.90;;;;;;4877100;29;20206;-67
2022/04/10 09:29:22;;;;;;;0.20;0.20;;;3.70;99.90;;;;;;4876934;29;20596;-61
2022/04/10 09:31:49;;;;;;;2.37;0.83;;;3.60;99.90;;;;;;4877476;29;20200;-62
2022/04/10 09:34:18;;;;;;;0.00;0.00;;;3.70;99.90;;;;;;4876989;29;20261;-62
2022/04/10 09:36:46;;;;;;;1.27;0.63;;;3.70;99.90;;;;;;4876732;29;20399;-62
2022/04/10 09:39:38;;;;;;;0.30;0.30;;;3.90;99.90;;;;;;4877516;29;20190;-62
2022/04/10 09:42:08;;;;;;;1.70;1.17;;;3.80;99.90;;;;;;4874668;29;20222;-63
2022/04/10 09:44:38;;;;;;;0.40;0.40;;;3.90;99.90;;;;;;4872370;29;20204;-61
2022/04/10 09:47:08;;;;;;;0.70;0.70;;;3.90;99.90;;;;;;4875673;29;20205;-59
2022/04/10 09:49:36;;;;;;;0.20;0.20;;;4.00;99.90;;;;;;4883397;29;20191;-64
2022/04/10 09:52:09;;;;;;;3.17;0.50;;;4.00;99.90;;;;;;4877240;29;20195;-62
2022/04/10 09:54:39;;;;;;;0.10;0.10;;;4.10;99.90;;;;;;4877046;29;20247;-62
2022/04/10 09:57:10;;;;;;;0.63;0.63;;;4.20;99.90;;;;;;4877681;29;20203;-61
2022/04/10 09:59:51;;;;;;;1.50;1.13;;;4.20;99.90;;;;;;4876654;29;20542;-60
2022/04/10 10:02:20;;;;;;;0.73;0.73;;;4.10;99.90;;;;;;4877473;29;20196;-63
2022/04/10 10:04:47;;;;;;;0.10;0.10;;;4.10;99.90;;;;;;4880853;29;20192;-61
2022/04/10 10:07:18;;;;;;;0.67;0.33;;;4.40;99.90;;;;;;4877313;29;20204;-62
2022/04/10 10:09:46;;;;;;;0.13;0.13;;;4.40;99.90;;;;;;4872480;29;20708;-64
2022/04/10 10:12:13;;;;;;;0.60;0.57;;;4.30;99.90;;;;;;4881158;29;20336;-64
2022/04/10 10:14:39;;;;;;;0.20;0.20;;;4.30;99.90;;;;;;4866853;29;20203;-62
2022/04/10 10:17:07;;;;;;;1.03;0.90;;;4.30;99.90;;;;;;4881300;29;20648;-62
2022/04/10 10:19:34;;;;;;;0.27;0.27;;;4.50;99.90;;;;;;4880620;29;20211;-64
2022/04/10 10:22:06;;;;;;;0.70;0.70;;;4.80;99.90;;;;;;4868229;29;20236;-63
2022/04/10 10:24:53;;;;;;;0.20;0.20;;;5.10;99.90;;;;;;4868336;29;20294;-61
2022/04/10 10:27:28;;;;;;;1.33;0.77;;;4.90;99.90;;;;;;4866748;29;20662;-60
2022/04/10 10:30:28;;;;;;;0.67;0.67;;;5.00;99.90;;;;;;4870713;29;20226;-61
2022/04/10 10:33:13;;;;;;;0.00;0.00;;;5.00;99.90;;;;;;4859207;29;20223;-61
2022/04/10 10:35:41;;;;;;;0.97;0.83;;;5.10;99.90;;;;;;4864942;29;20190;-60
2022/04/10 10:38:23;;;;;;;0.50;0.40;;;5.20;99.90;;;;;;4880380;29;20196;-60
2022/04/10 10:40:50;;;;;;;0.30;0.30;;;5.10;99.90;;;;;;4880278;29;20215;-61
2022/04/10 10:43:22;;;;;;;0.40;0.40;;;5.30;99.90;;;;;;4863326;29;20196;-60
2022/04/10 10:45:52;;;;;;;24.37;1.10;;;5.20;99.90;;;;;;4880353;29;20235;-61
2022/04/10 10:48:32;;;;;;;1.80;1.20;;;5.30;99.90;;;;;;4876797;29;20281;-61
2022/04/10 10:51:10;;;;;;;0.40;0.40;;;5.30;99.90;;;;;;4868835;29;20207;-61
2022/04/10 10:53:57;;;;;;;0.33;0.33;;;5.30;99.90;;;;;;4879840;29;20215;-62
2022/04/10 10:56:38;;;;;;;0.43;0.40;;;5.30;99.90;;;;;;4880204;29;20244;-61
2022/04/10 10:59:29;;;;;;;0.30;0.30;;;4.80;99.90;;;;;;4868519;29;20658;-61
2022/04/10 11:02:10;;;;;;;0.43;0.43;;;4.60;99.90;;;;;;4876323;29;20227;-60
2022/04/10 11:04:56;;;;;;;0.20;0.20;;;4.50;99.90;;;;;;4879514;29;20559;-61
2022/04/10 11:07:27;;;;;;;0.00;0.00;;;4.50;99.90;;;;;;4879321;29;20303;-62
2022/04/10 11:10:09;;;;;;;0.80;0.80;;;4.70;99.90;;;;;;4879560;29;20338;-63
2022/04/10 11:13:03;;;;;;;0.53;0.33;;;5.00;99.90;;;;;;4879545;29;20207;-61
2022/04/10 11:15:35;;;;;;;0.20;0.20;;;5.30;99.90;;;;;;4872598;29;20217;-61
2022/04/10 11:18:28;;;;;;;0.73;0.43;;;5.40;99.90;;;;;;4879078;29;20236;-62
2022/04/10 11:21:17;;;;;;;0.00;0.00;;;5.20;99.90;;;;;;4870260;29;20226;-65
2022/04/10 11:23:45;;;;;;;1.80;0.70;;;5.10;99.90;;;;;;4862882;29;20560;-72
2022/04/10 11:26:16;;;;;;;0.50;0.50;;;5.00;99.90;;;;;;4879253;29;20243;-61
2022/04/10 11:29:07;;;;;;;0.60;0.60;;;5.10;99.90;;;;;;4860633;29;20220;-58
2022/04/10 11:31:44;;;;;;;0.90;0.90;;;5.10;99.90;;;;;;4861315;29;20659;-59
2022/04/10 11:34:20;;;;;;;0.40;0.40;;;5.00;99.90;;;;;;4861808;29;20263;-60
2022/04/10 11:36:52;;;;;;;0.80;0.43;;;4.80;99.90;;;;;;4861022;29;20173;-57
2022/04/10 11:39:26;;;;;;;0.37;0.37;;;4.90;99.90;;;;;;4861316;29;20208;-60
2022/04/10 11:42:07;;;;;;;0.70;0.70;;;4.90;99.90;;;;;;4860957;29;20219;-59
2022/04/10 11:44:33;;;;;;;0.67;0.67;;;4.90;99.90;;;;;;4861082;29;20265;-59
2022/04/10 11:47:01;;;;;;;0.60;0.60;;;4.90;99.90;;;;;;4860720;29;20197;-61
2022/04/10 11:49:27;;;;;;;0.10;0.10;;;5.00;99.90;;;;;;4859694;29;20705;-61
2022/04/10 11:52:00;;;;;;;0.87;0.33;;;5.00;99.90;;;;;;4860408;29;20240;-60
2022/04/10 11:54:31;;;;;;;0.93;0.47;;;5.00;99.90;;;;;;4860280;29;20669;-60
2022/04/10 11:56:58;;;;;;;0.23;0.23;;;5.00;99.90;;;;;;4878542;29;20654;-61
2022/04/10 11:59:24;;;;;;;1.03;0.97;;;5.20;99.90;;;;;;4898138;29;20185;-62
2022/04/10 12:01:51;;;;;;;0.20;0.20;;;5.30;99.90;;;;;;4897612;29;20226;-59
2022/04/10 12:04:21;;;;;;;1.50;0.87;;;5.50;99.90;;;;;;4898018;29;20291;-59
2022/04/10 12:06:47;;;;;;;0.10;0.10;;;5.90;99.90;;;;;;4897695;29;20254;-59
2022/04/10 12:09:14;;;;;;;1.73;0.73;;;6.10;99.90;;;;;;4897993;29;20644;-59
2022/04/10 12:11:41;;;;;;;0.23;0.23;;;6.20;99.90;;;;;;4883777;29;20293;-60
2022/04/10 12:14:24;;;;;;;0.50;0.50;;;6.30;99.90;;;;;;4879323;29;20185;-60
2022/04/10 12:16:52;;;;;;;0.10;0.10;;;6.60;99.90;;;;;;4879178;29;20182;-63
2022/04/10 12:19:35;;;;;;;3.43;1.27;;;6.70;99.90;;;;;;4878710;29;20202;-62
2022/04/10 12:22:07;;;;;;;1.20;0.60;;;6.90;99.90;;;;;;4878655;29;20358;-60
2022/04/10 12:24:34;;;;;;;0.30;0.30;;;6.60;99.90;;;;;;4878733;29;20192;-60
2022/04/10 12:27:03;;;;;;;0.20;0.20;;;6.50;99.90;;;;;;4877904;29;20199;-61
2022/04/10 12:29:30;;;;;;;0.30;0.30;;;6.50;99.90;;;;;;4879238;29;20181;-60
2022/04/10 12:31:57;;;;;;;0.10;0.10;;;6.60;99.90;;;;;;4878680;29;20190;-62
2022/04/10 12:34:23;;;;;;;0.50;0.50;;;6.60;99.90;;;;;;4862151;29;20282;-63
2022/04/10 12:36:51;;;;;;;1.70;0.87;;;6.50;99.90;;;;;;4878710;29;20280;-62
2022/04/10 12:39:27;;;;;;;1.33;1.23;;;6.50;99.90;;;;;;4878533;29;20249;-61
2022/04/10 12:42:10;;;;;;;0.40;0.40;;;6.30;99.90;;;;;;4861823;29;20293;-64
2022/04/10 12:44:40;;;;;;;2.50;0.50;;;6.20;99.90;;;;;;4878496;29;20196;-64
2022/04/10 12:47:08;;;;;;;0.13;0.13;;;5.90;99.90;;;;;;4879052;29;20271;-63
2022/04/10 12:49:35;;;;;;;0.10;0.10;;;5.70;99.90;;;;;;4848694;29;20520;-67
2022/04/10 12:52:03;;;;;;;0.00;0.00;;;5.80;99.90;;;;;;4859786;29;20216;-62
2022/04/10 12:54:33;;;;;;;0.30;0.30;;;5.60;99.90;;;;;;4859354;29;20332;-61
2022/04/10 12:56:59;;;;;;;0.82;0.70;;;5.60;99.90;;;;;;4858787;29;20923;-65
2022/04/10 12:59:38;;;;;;;0.70;0.70;;;5.60;99.90;;;;;;4860096;29;20270;-64
2022/04/10 13:02:09;;;;;;;0.10;0.10;;;5.60;99.90;;;;;;4859836;29;20213;-65
2022/04/10 13:04:35;;;;;;;0.33;0.33;;;5.80;99.90;;;;;;4859779;29;20585;-74